Time;durP1;ratioP1;P1;durP2;ratioP2;P2;SDS_P1;SDS_P2;PMS_P1;PMS_P2;Temp;Humidity;BMP_temperature;BMP_pressure;BME280_temperature;BME280_humidity;BME280_pressure;Samples;Min_cycle;Max_cycle;Signal;HPM_P1;HPM_P2
2023/01/04 00:00:48;;;;;;;17.50;7.80;;;;;;;;;;4950566;28;20433;-69
2023/01/04 00:03:15;;;;;;;19.40;7.60;;;;;;;;;;4950724;28;20034;-69
2023/01/04 00:05:41;;;;;;;15.75;7.45;;;;;;;;;;4954275;28;20030;-69
2023/01/04 00:08:07;;;;;;;16.67;7.70;;;;;;;;;;4950121;28;20097;-68
2023/01/04 00:10:34;;;;;;;17.70;7.22;;;;;;;;;;4948330;28;20070;-68
2023/01/04 00:13:01;;;;;;;15.55;7.20;;;;;;;;;;4944889;28;20061;-68
2023/01/04 00:15:27;;;;;;;16.17;7.20;;;;;;;;;;4948893;28;20034;-69
2023/01/04 00:17:53;;;;;;;17.13;7.53;;;;;;;;;;4953512;28;20057;-69
2023/01/04 00:20:19;;;;;;;16.27;7.63;;;;;;;;;;4948804;28;20065;-69
2023/01/04 00:22:45;;;;;;;19.50;7.57;;;;;;;;;;4951298;28;20396;-69
2023/01/04 00:25:11;;;;;;;18.20;7.57;;;;;;;;;;4950096;28;20030;-69
2023/01/04 00:27:38;;;;;;;14.38;6.68;;;;;;;;;;4953378;28;20034;-70
2023/01/04 00:30:04;;;;;;;16.50;7.32;;;;;;;;;;4947572;28;20126;-68
2023/01/04 00:32:31;;;;;;;15.80;7.45;;;;;;;;;;4950883;28;20136;-68
2023/01/04 00:34:57;;;;;;;;;;;;;;;;;;4950727;28;20049;-67
2023/01/04 00:37:23;;;;;;;20.27;7.32;;;;;;;;;;4947600;28;19914;-69
2023/01/04 00:39:49;;;;;;;16.65;7.38;;;;;;;;;;4966184;28;20026;-69
2023/01/04 00:42:15;;;;;;;20.67;7.60;;;;;;;;;;4947246;28;20871;-69
2023/01/04 00:44:41;;;;;;;14.82;6.53;;;;;;;;;;4949027;28;20093;-68
2023/01/04 00:47:07;;;;;;;13.85;6.40;;;;;;;;;;4948043;28;20050;-68
2023/01/04 00:49:34;;;;;;;15.45;6.55;;;;;;;;;;4954551;28;20136;-70
2023/01/04 00:52:00;;;;;;;14.43;6.68;;;;;;;;;;4949388;28;20049;-68
2023/01/04 00:54:26;;;;;;;15.77;6.45;;;;;;;;;;4952444;28;20452;-68
2023/01/04 00:56:52;;;;;;;13.73;6.13;;;;;;;;;;4952705;28;20423;-70
2023/01/04 00:59:19;;;;;;;17.00;6.10;;;;;;;;;;4946072;28;20618;-68
2023/01/04 01:01:45;;;;;;;16.90;6.32;;;;;;;;;;4953413;28;20469;-69
2023/01/04 01:04:14;;;;;;;13.68;6.07;;;;;;;;;;4945665;28;20393;-69
2023/01/04 01:06:40;;;;;;;15.07;5.65;;;;;;;;;;4949987;28;20018;-69
2023/01/04 01:09:06;;;;;;;;;;;;;;;;;;4949576;28;20497;-69
2023/01/04 01:11:35;;;;;;;14.55;5.95;;;;;;;;;;4947629;28;20136;-69
2023/01/04 01:14:02;;;;;;;13.10;5.60;;;;;;;;;;4947009;28;20046;-69
2023/01/04 01:16:28;;;;;;;;;;;;;;;;;;4950761;28;20038;-69
2023/01/04 01:18:54;;;;;;;13.32;5.60;;;;;;;;;;4953859;28;19945;-69
2023/01/04 01:21:21;;;;;;;15.48;5.45;;;;;;;;;;4948190;28;20083;-69
2023/01/04 01:23:47;;;;;;;13.82;5.82;;;;;;;;;;4950108;28;20031;-69
2023/01/04 01:26:15;;;;;;;13.18;5.20;;;;;;;;;;4947733;28;20054;-69
2023/01/04 01:28:41;;;;;;;11.48;4.90;;;;;;;;;;4951999;28;20050;-69
2023/01/04 01:31:08;;;;;;;15.50;5.07;;;;;;;;;;4947645;28;20030;-69
2023/01/04 01:33:38;;;;;;;12.93;4.65;;;;;;;;;;4949962;28;20068;-69
2023/01/04 01:36:05;;;;;;;10.00;4.57;;;;;;;;;;4946466;28;20495;-69
2023/01/04 01:38:31;;;;;;;13.52;4.55;;;;;;;;;;4947720;28;20170;-69
2023/01/04 01:40:57;;;;;;;;;;;;;;;;;;4951851;28;20045;-69
2023/01/04 01:43:43;;;;;;;13.40;4.40;;;;;;;;;;4946476;28;19976;-69
2023/01/04 01:46:10;;;;;;;14.48;4.80;;;;;;;;;;4949824;28;20060;-69
2023/01/04 01:48:36;;;;;;;12.77;4.57;;;;;;;;;;4955802;28;20640;-69
2023/01/04 01:51:02;;;;;;;;;;;;;;;;;;4950767;28;20265;-69
2023/01/04 01:53:29;;;;;;;12.35;4.18;;;;;;;;;;4954240;28;20785;-69
2023/01/04 01:55:56;;;;;;;12.73;4.72;;;;;;;;;;4950877;28;20035;-69
2023/01/04 01:58:29;;;;;;;13.13;5.30;;;;;;;;;;4948422;28;20038;-69
2023/01/04 02:00:55;;;;;;;11.52;3.88;;;;;;;;;;4951814;28;20424;-69
2023/01/04 02:03:23;;;;;;;13.30;4.22;;;;;;;;;;4950368;28;20283;-69
2023/01/04 02:05:53;;;;;;;11.35;3.90;;;;;;;;;;4955237;28;20484;-69
2023/01/04 02:08:22;;;;;;;11.73;4.53;;;;;;;;;;4950904;28;20581;-69
2023/01/04 02:10:48;;;;;;;9.40;3.92;;;;;;;;;;4953524;28;20034;-69
2023/01/04 02:13:14;;;;;;;;;;;;;;;;;;4950229;28;20030;-69
2023/01/04 02:16:01;;;;;;;12.38;4.53;;;;;;;;;;4953908;28;19989;-69
2023/01/04 02:18:32;;;;;;;12.32;4.38;;;;;;;;;;4954386;28;20085;-69
2023/01/04 02:21:20;;;;;;;13.52;3.97;;;;;;;;;;4955859;28;20450;-69
2023/01/04 02:24:10;;;;;;;10.32;4.15;;;;;;;;;;4953646;28;20023;-69
2023/01/04 02:26:42;;;;;;;10.07;3.85;;;;;;;;;;4892590;29;20131;-69
2023/01/04 02:29:23;;;;;;;14.63;4.40;;;;;;;;;;4890968;29;20047;-68
2023/01/04 02:31:53;;;;;;;14.70;3.97;;;;;;;;;;4895298;29;20046;-68
2023/01/04 02:34:19;;;;;;;12.82;3.70;;;;;;;;;;4892032;28;20055;-68
2023/01/04 02:36:52;;;;;;;11.40;3.50;;;;;;;;;;4894911;29;20123;-68
2023/01/04 02:39:34;;;;;;;14.82;3.90;;;;;;;;;;4891887;28;20476;-68
2023/01/04 02:42:07;;;;;;;10.70;3.50;;;;;;;;;;4891584;29;20769;-68
2023/01/04 02:44:56;;;;;;;11.27;3.35;;;;;;;;;;4892660;29;20639;-68
2023/01/04 02:50:30;;;;;;;12.43;3.47;;;;;;;;;;4889926;28;20142;-68
2023/01/04 02:53:00;;;;;;;10.00;3.65;;;;;;;;;;4875700;29;20047;-68
2023/01/04 02:55:31;;;;;;;13.00;4.25;;;;;;;;;;4892689;29;20502;-68
2023/01/04 02:58:08;;;;;;;10.80;4.28;;;;;;;;;;4893251;29;20595;-69
2023/01/04 03:00:34;;;;;;;11.27;3.42;;;;;;;;;;4893580;29;20633;-67
2023/01/04 03:06:15;;;;;;;12.98;4.05;;;;;;;;;;4949696;28;20503;-69
2023/01/04 03:09:00;;;;;;;11.13;3.80;;;;;;;;;;4950362;28;20798;-66
2023/01/04 03:14:24;;;;;;;10.85;3.53;;;;;;;;;;4948805;28;20457;-69
2023/01/04 03:16:51;;;;;;;14.27;4.05;;;;;;;;;;4951878;28;20033;-68
2023/01/04 03:22:04;;;;;;;10.25;3.88;;;;;;;;;;4948596;28;20057;-68
2023/01/04 03:35:58;;;;;;;10.18;3.40;;;;;;;;;;4913095;28;20082;-67
2023/01/04 03:49:47;;;;;;;10.75;3.35;;;;;;;;;;4910322;28;20106;-69
2023/01/04 03:52:14;;;;;;;11.07;3.28;;;;;;;;;;4910628;28;20723;-68
2023/01/04 03:54:42;;;;;;;9.77;3.28;;;;;;;;;;4912836;28;21246;-68
2023/01/04 03:57:09;;;;;;;13.05;3.55;;;;;;;;;;4908049;28;20596;-68
2023/01/04 03:59:41;;;;;;;9.13;3.40;;;;;;;;;;4913160;28;20387;-69
2023/01/04 04:02:12;;;;;;;9.95;3.15;;;;;;;;;;4909278;28;20102;-69
2023/01/04 04:10:08;;;;;;;10.60;3.33;;;;;;;;;;4950136;28;20409;-68
2023/01/04 04:12:34;;;;;;;11.60;3.72;;;;;;;;;;4950557;28;20045;-68
2023/01/04 04:15:01;;;;;;;9.45;3.50;;;;;;;;;;4948957;28;20041;-68
2023/01/04 04:17:27;;;;;;;9.52;3.03;;;;;;;;;;4952286;28;20042;-68
2023/01/04 04:19:53;;;;;;;9.93;3.45;;;;;;;;;;4952044;28;20042;-68
2023/01/04 04:22:19;;;;;;;8.48;3.22;;;;;;;;;;4947186;28;20724;-67
2023/01/04 04:24:45;;;;;;;9.25;3.45;;;;;;;;;;4946888;28;20623;-67
2023/01/04 04:27:11;;;;;;;13.20;3.47;;;;;;;;;;4947138;28;20026;-67
2023/01/04 04:29:38;;;;;;;9.77;3.33;;;;;;;;;;4950004;28;20572;-68
2023/01/04 04:32:04;;;;;;;9.05;3.03;;;;;;;;;;4947737;28;20034;-67
2023/01/04 04:34:30;;;;;;;13.68;3.88;;;;;;;;;;4952547;28;20619;-68
2023/01/04 04:36:56;;;;;;;10.65;3.55;;;;;;;;;;4953429;28;20603;-68
2023/01/04 04:39:22;;;;;;;10.30;3.25;;;;;;;;;;4946792;28;20034;-67
2023/01/04 04:41:48;;;;;;;11.43;3.13;;;;;;;;;;4949761;28;20500;-67
2023/01/04 04:44:16;;;;;;;11.85;3.50;;;;;;;;;;4946487;28;20136;-69
2023/01/04 04:46:43;;;;;;;11.30;3.75;;;;;;;;;;4950119;28;20031;-68
2023/01/04 04:49:09;;;;;;;;;;;;;;;;;;4946878;28;20540;-68
2023/01/04 04:51:35;;;;;;;12.55;3.78;;;;;;;;;;4953659;28;19918;-68
2023/01/04 04:54:01;;;;;;;13.05;3.97;;;;;;;;;;4948090;28;20034;-67
2023/01/04 04:56:27;;;;;;;12.55;3.95;;;;;;;;;;4948167;28;20092;-67
2023/01/04 04:58:53;;;;;;;8.68;3.42;;;;;;;;;;4951213;28;20484;-69
2023/01/04 05:01:20;;;;;;;11.90;3.92;;;;;;;;;;4946403;28;21687;-67
2023/01/04 05:03:46;;;;;;;13.82;4.22;;;;;;;;;;4948161;28;20628;-69
2023/01/04 05:06:12;;;;;;;12.70;3.70;;;;;;;;;;4946254;28;20091;-68
2023/01/04 05:08:38;;;;;;;12.98;4.22;;;;;;;;;;4947915;28;20545;-68
2023/01/04 05:11:05;;;;;;;11.25;4.07;;;;;;;;;;4945914;28;20034;-68
2023/01/04 05:13:31;;;;;;;10.07;4.07;;;;;;;;;;4951689;28;20279;-67
2023/01/04 05:15:58;;;;;;;10.18;3.78;;;;;;;;;;4952624;28;20034;-68
2023/01/04 05:18:24;;;;;;;12.73;3.97;;;;;;;;;;4946025;28;20077;-67
2023/01/04 05:20:50;;;;;;;11.32;3.90;;;;;;;;;;4952266;28;20085;-68
2023/01/04 05:23:16;;;;;;;;;;;;;;;;;;4947760;28;20139;-68
2023/01/04 05:25:43;;;;;;;11.52;4.35;;;;;;;;;;4950683;28;20565;-70
2023/01/04 05:28:10;;;;;;;12.45;4.85;;;;;;;;;;4948351;28;20026;-69
2023/01/04 05:30:52;;;;;;;12.43;4.80;;;;;;;;;;4952007;28;20037;-69
2023/01/04 05:33:19;;;;;;;10.65;4.90;;;;;;;;;;4949121;28;20049;-69
2023/01/04 05:35:45;;;;;;;11.93;5.00;;;;;;;;;;4951880;28;20022;-69
2023/01/04 05:38:12;;;;;;;10.57;5.32;;;;;;;;;;4947771;28;20066;-69
2023/01/04 05:40:38;;;;;;;12.93;5.20;;;;;;;;;;4946356;28;20628;-69
2023/01/04 05:43:04;;;;;;;12.43;4.82;;;;;;;;;;4946038;28;20027;-69
2023/01/04 05:45:30;;;;;;;10.20;4.45;;;;;;;;;;4949763;28;20489;-69
2023/01/04 05:47:57;;;;;;;12.70;5.20;;;;;;;;;;4949340;28;20592;-69
2023/01/04 05:50:23;;;;;;;11.88;4.38;;;;;;;;;;4943914;28;20413;-67
2023/01/04 05:52:49;;;;;;;;;;;;;;;;;;4949351;28;20145;-68
2023/01/04 05:55:15;;;;;;;12.27;4.45;;;;;;;;;;4948339;28;19917;-69
2023/01/04 05:57:42;;;;;;;11.70;5.03;;;;;;;;;;4950150;28;20476;-68
2023/01/04 06:00:08;;;;;;;11.70;4.30;;;;;;;;;;4943660;28;20027;-67
2023/01/04 06:02:35;;;;;;;12.52;4.88;;;;;;;;;;4952808;28;20117;-67
2023/01/04 06:05:01;;;;;;;;;;;;;;;;;;4946766;28;20106;-67
2023/01/04 06:07:28;;;;;;;12.90;3.95;;;;;;;;;;4948893;28;19917;-69
2023/01/04 06:09:54;;;;;;;11.40;4.25;;;;;;;;;;4948423;28;20046;-69
2023/01/04 06:12:20;;;;;;;13.18;4.30;;;;;;;;;;4943469;28;20031;-68
2023/01/04 06:14:47;;;;;;;11.32;4.10;;;;;;;;;;4950434;28;20033;-67
2023/01/04 06:17:13;;;;;;;10.75;3.60;;;;;;;;;;4946551;28;20125;-68
2023/01/04 06:19:39;;;;;;;10.98;3.50;;;;;;;;;;4947810;28;20034;-68
2023/01/04 06:22:06;;;;;;;10.13;3.92;;;;;;;;;;4945953;28;20061;-68
2023/01/04 06:24:32;;;;;;;;;;;;;;;;;;4949518;28;20058;-68
2023/01/04 06:26:59;;;;;;;9.93;3.30;;;;;;;;;;4949530;28;19914;-68
2023/01/04 06:29:25;;;;;;;9.55;3.45;;;;;;;;;;4951052;28;20565;-67
2023/01/04 06:31:52;;;;;;;10.15;3.47;;;;;;;;;;4954127;28;20714;-68
2023/01/04 06:34:18;;;;;;;10.73;3.55;;;;;;;;;;4948758;28;20500;-67
2023/01/04 06:36:44;;;;;;;8.38;3.33;;;;;;;;;;4950596;28;20495;-68
2023/01/04 06:39:10;;;;;;;10.40;3.67;;;;;;;;;;4950702;28;20034;-69
2023/01/04 06:41:36;;;;;;;10.35;3.78;;;;;;;;;;4952817;28;20042;-69
2023/01/04 06:44:03;;;;;;;10.68;3.67;;;;;;;;;;4950854;28;20034;-69
2023/01/04 06:46:29;;;;;;;10.45;3.70;;;;;;;;;;4950486;28;20156;-67
2023/01/04 06:48:55;;;;;;;;;;;;;;;;;;4950374;28;20552;-68
2023/01/04 06:51:21;;;;;;;11.32;4.90;;;;;;;;;;4963091;28;19965;-67
2023/01/04 06:53:48;;;;;;;11.75;4.82;;;;;;;;;;4952582;28;20038;-68
2023/01/04 06:56:14;;;;;;;;;;;;;;;;;;4947780;28;20529;-69
2023/01/04 06:58:40;;;;;;;14.75;5.40;;;;;;;;;;4950930;28;19992;-68
2023/01/04 07:01:06;;;;;;;15.13;6.85;;;;;;;;;;4948572;28;20398;-68
2023/01/04 07:03:33;;;;;;;16.58;10.65;;;;;;;;;;4951728;28;20452;-70
2023/01/04 07:05:59;;;;;;;19.77;12.23;;;;;;;;;;4935449;28;20026;-68
2023/01/04 07:08:25;;;;;;;19.95;12.77;;;;;;;;;;4951568;28;20038;-68
2023/01/04 07:10:51;;;;;;;21.75;13.88;;;;;;;;;;4953730;28;20638;-68
2023/01/04 07:13:17;;;;;;;19.35;12.73;;;;;;;;;;4951322;28;20567;-68
2023/01/04 07:15:43;;;;;;;21.02;12.35;;;;;;;;;;4950776;28;20381;-68
2023/01/04 07:18:10;;;;;;;18.38;11.15;;;;;;;;;;4946081;28;20038;-65
2023/01/04 07:20:39;;;;;;;14.50;9.95;;;;;;;;;;4951077;28;20605;-66
2023/01/04 07:23:05;;;;;;;27.38;11.95;;;;;;;;;;4949321;28;20041;-65
2023/01/04 07:25:31;;;;;;;34.25;12.68;;;;;;;;;;4955833;28;20790;-67
2023/01/04 07:27:58;;;;;;;26.25;10.50;;;;;;;;;;4949807;28;20813;-66
2023/01/04 07:30:24;;;;;;;22.13;12.38;;;;;;;;;;4948438;28;20564;-67
2023/01/04 07:32:50;;;;;;;;;;;;;;;;;;4948519;28;20413;-65
2023/01/04 07:35:16;;;;;;;26.55;15.15;;;;;;;;;;4947705;28;19976;-65
2023/01/04 07:37:43;;;;;;;25.42;15.82;;;;;;;;;;4949998;28;20031;-65
2023/01/04 07:40:10;;;;;;;29.30;17.80;;;;;;;;;;4948258;28;20026;-66
2023/01/04 07:42:36;;;;;;;32.08;18.80;;;;;;;;;;4948623;28;20038;-65
2023/01/04 07:45:03;;;;;;;33.47;19.42;;;;;;;;;;4945435;28;20053;-65
2023/01/04 07:47:29;;;;;;;30.55;18.52;;;;;;;;;;4949140;28;20050;-65
2023/01/04 07:49:55;;;;;;;29.80;18.23;;;;;;;;;;4948836;28;21015;-65
2023/01/04 07:52:21;;;;;;;31.60;19.77;;;;;;;;;;4948883;28;20060;-67
2023/01/04 07:54:47;;;;;;;38.60;23.70;;;;;;;;;;4949988;28;20947;-66
2023/01/04 07:57:14;;;;;;;45.05;28.13;;;;;;;;;;4945853;28;20357;-66
2023/01/04 07:59:40;;;;;;;60.20;36.63;;;;;;;;;;4951427;28;20524;-66
2023/01/04 08:02:06;;;;;;;73.75;39.33;;;;;;;;;;4949833;28;20567;-64
2023/01/04 08:04:32;;;;;;;;;;;;;;;;;;4946397;28;20113;-67
2023/01/04 08:06:58;;;;;;;52.70;29.40;;;;;;;;;;4948430;28;20416;-67
2023/01/04 08:09:25;;;;;;;68.78;38.28;;;;;;;;;;4946989;28;20448;-66
2023/01/04 08:11:51;;;;;;;70.75;41.58;;;;;;;;;;4950427;28;20107;-65
2023/01/04 08:14:17;;;;;;;71.88;45.53;;;;;;;;;;4948773;28;20035;-65
2023/01/04 08:16:43;;;;;;;92.28;52.92;;;;;;;;;;4945872;28;20038;-65
2023/01/04 08:19:12;;;;;;;97.50;59.92;;;;;;;;;;4947904;28;20045;-65
2023/01/04 08:21:39;;;;;;;110.68;61.58;;;;;;;;;;4947892;28;20660;-65
2023/01/04 08:24:05;;;;;;;91.68;54.10;;;;;;;;;;4947927;28;20054;-65
2023/01/04 08:26:31;;;;;;;;;;;;;;;;;;4949684;28;20572;-65
2023/01/04 08:28:58;;;;;;;82.80;52.47;;;;;;;;;;4949413;28;19942;-65
2023/01/04 08:31:26;;;;;;;92.22;50.58;;;;;;;;;;4949233;28;20337;-66
2023/01/04 08:33:53;;;;;;;78.40;47.42;;;;;;;;;;4950870;28;20049;-67
2023/01/04 08:36:20;;;;;;;90.78;50.00;;;;;;;;;;4948178;28;20026;-65
2023/01/04 08:38:47;;;;;;;87.82;51.83;;;;;;;;;;4951248;28;20049;-66
2023/01/04 08:41:14;;;;;;;92.13;53.95;;;;;;;;;;4949577;28;20042;-67
2023/01/04 08:43:40;;;;;;;;;;;;;;;;;;4947803;28;20023;-67
2023/01/04 08:46:06;;;;;;;79.35;48.15;;;;;;;;;;4948991;28;19914;-68
2023/01/04 08:48:33;;;;;;;70.15;42.95;;;;;;;;;;4950102;28;20046;-66
2023/01/04 08:51:00;;;;;;;64.20;38.83;;;;;;;;;;4950608;28;20109;-66
2023/01/04 08:53:26;;;;;;;67.18;35.45;;;;;;;;;;4949699;28;20456;-67
2023/01/04 08:55:52;;;;;;;;;;;;;;;;;;4950176;28;20031;-67
2023/01/04 08:58:18;;;;;;;51.45;30.35;;;;;;;;;;4947465;28;19913;-66
2023/01/04 09:00:45;;;;;;;45.95;27.23;;;;;;;;;;4950223;28;20147;-67
2023/01/04 09:03:11;;;;;;;47.55;27.63;;;;;;;;;;4943641;28;20559;-67
2023/01/04 09:05:37;;;;;;;46.33;23.85;;;;;;;;;;4964718;28;20574;-67
2023/01/04 09:08:03;;;;;;;;;;;;;;;;;;4948576;28;20034;-66
2023/01/04 09:10:29;;;;;;;38.97;21.50;;;;;;;;;;4950315;28;19913;-66
2023/01/04 09:12:55;;;;;;;;;;;;;;;;;;4949083;28;20026;-66
2023/01/04 09:15:21;;;;;;;37.67;19.80;;;;;;;;;;4944224;28;19918;-66
2023/01/04 09:17:47;;;;;;;;;;;;;;;;;;4953396;28;20456;-67
2023/01/04 09:20:13;;;;;;;35.90;20.02;;;;;;;;;;4947647;28;20528;-67
2023/01/04 09:22:39;;;;;;;;;;;;;;;;;;4947945;28;20058;-68
2023/01/04 09:25:06;;;;;;;36.25;19.73;;;;;;;;;;4949522;28;19924;-68
2023/01/04 09:27:32;;;;;;;31.90;16.85;;;;;;;;;;4952018;28;20319;-66
2023/01/04 09:29:59;;;;;;;20.60;11.55;;;;;;;;;;4949404;28;20240;-67
2023/01/04 09:32:25;;;;;;;20.05;11.15;;;;;;;;;;4950470;28;20881;-67
2023/01/04 09:34:52;;;;;;;21.40;10.48;;;;;;;;;;4951150;28;20464;-66
2023/01/04 09:37:18;;;;;;;17.60;8.80;;;;;;;;;;4948424;28;20131;-67
2023/01/04 09:39:46;;;;;;;19.70;10.38;;;;;;;;;;4954102;28;20034;-67
2023/01/04 09:42:25;;;;;;;14.55;7.78;;;;;;;;;;4946601;28;20030;-66
2023/01/04 09:44:55;;;;;;;16.25;7.90;;;;;;;;;;4949950;28;20058;-65
2023/01/04 09:47:40;;;;;;;15.73;6.57;;;;;;;;;;4946710;28;21372;-66
2023/01/04 09:50:24;;;;;;;13.73;6.93;;;;;;;;;;4948314;28;20034;-66
2023/01/04 09:52:56;;;;;;;15.95;6.55;;;;;;;;;;4949886;28;20398;-67
2023/01/04 09:55:24;;;;;;;15.60;7.10;;;;;;;;;;4946165;28;20484;-67
2023/01/04 09:57:56;;;;;;;14.65;7.25;;;;;;;;;;4949022;28;20077;-65
2023/01/04 10:00:27;;;;;;;22.70;7.63;;;;;;;;;;4946323;28;20035;-65
2023/01/04 10:03:00;;;;;;;13.77;5.30;;;;;;;;;;4949837;28;20039;-67
2023/01/04 10:05:27;;;;;;;14.38;5.35;;;;;;;;;;4951599;28;20262;-67
2023/01/04 10:07:53;;;;;;;14.68;5.75;;;;;;;;;;4954377;28;20096;-68
2023/01/04 10:10:50;;;;;;;12.85;5.00;;;;;;;;;;4949550;28;21575;-66
2023/01/04 10:13:16;;;;;;;10.85;4.45;;;;;;;;;;4889947;29;20974;-67
2023/01/04 10:15:48;;;;;;;14.25;4.38;;;;;;;;;;4894649;29;20521;-66
2023/01/04 10:18:26;;;;;;;12.43;4.72;;;;;;;;;;4890490;29;20056;-67
2023/01/04 10:20:55;;;;;;;13.75;5.07;;;;;;;;;;4894456;28;20067;-67
2023/01/04 10:23:27;;;;;;;12.65;4.85;;;;;;;;;;4876266;29;20047;-66
2023/01/04 10:26:12;;;;;;;10.77;3.70;;;;;;;;;;4896547;29;20492;-66
2023/01/04 10:28:41;;;;;;;10.27;3.80;;;;;;;;;;4896273;29;20035;-66
2023/01/04 10:31:13;;;;;;;12.38;4.32;;;;;;;;;;4890511;29;20047;-66
2023/01/04 10:33:47;;;;;;;12.07;4.07;;;;;;;;;;4893247;29;20044;-66
2023/01/04 10:36:18;;;;;;;11.50;4.28;;;;;;;;;;4876643;29;20047;-66
2023/01/04 10:38:45;;;;;;;9.40;3.33;;;;;;;;;;4894402;29;20976;-67
2023/01/04 10:41:13;;;;;;;10.73;3.35;;;;;;;;;;4876952;29;20520;-67
2023/01/04 10:43:45;;;;;;;12.02;3.88;;;;;;;;;;4878648;29;20044;-67
2023/01/04 10:46:16;;;;;;;10.18;3.30;;;;;;;;;;4887869;29;20068;-67
2023/01/04 10:49:06;;;;;;;9.45;2.95;;;;;;;;;;4897901;28;20509;-67
2023/01/04 10:51:39;;;;;;;12.23;3.00;;;;;;;;;;4953192;28;20034;-67
2023/01/04 10:54:24;;;;;;;10.10;2.95;;;;;;;;;;4951154;28;20387;-67
2023/01/04 10:56:50;;;;;;;9.43;3.10;;;;;;;;;;4952758;28;20030;-67
2023/01/04 10:59:22;;;;;;;12.73;3.10;;;;;;;;;;4948156;28;20041;-68
2023/01/04 11:02:11;;;;;;;9.35;2.97;;;;;;;;;;4953931;28;20038;-67
2023/01/04 11:04:44;;;;;;;9.68;2.97;;;;;;;;;;4953409;28;20571;-68
2023/01/04 11:07:14;;;;;;;14.75;3.20;;;;;;;;;;4949175;28;20484;-67
2023/01/04 11:09:52;;;;;;;12.40;3.13;;;;;;;;;;4954463;28;20038;-67
2023/01/04 11:12:20;;;;;;;11.38;4.07;;;;;;;;;;4948676;28;20128;-68
2023/01/04 11:14:46;;;;;;;10.10;4.13;;;;;;;;;;4953072;28;20348;-65
2023/01/04 11:17:13;;;;;;;12.93;5.13;;;;;;;;;;4951113;28;20045;-68
2023/01/04 11:19:40;;;;;;;12.18;5.80;;;;;;;;;;4952223;28;20121;-68
2023/01/04 11:22:14;;;;;;;13.65;8.15;;;;;;;;;;4947488;28;20042;-67
2023/01/04 11:24:41;;;;;;;11.55;4.50;;;;;;;;;;4955106;28;20033;-66
2023/01/04 11:27:14;;;;;;;13.60;6.20;;;;;;;;;;4950479;28;20030;-66
2023/01/04 11:29:57;;;;;;;14.55;7.43;;;;;;;;;;4953716;28;20121;-67
2023/01/04 11:32:50;;;;;;;18.58;9.65;;;;;;;;;;4951242;28;20074;-69
2023/01/04 11:35:16;;;;;;;16.38;10.13;;;;;;;;;;4889268;29;20190;-68
2023/01/04 11:37:42;;;;;;;18.20;12.10;;;;;;;;;;4892994;29;20051;-67
2023/01/04 11:40:18;;;;;;;16.73;11.45;;;;;;;;;;4889985;29;20262;-67
2023/01/04 11:42:45;;;;;;;17.73;10.13;;;;;;;;;;4892346;29;20046;-66
2023/01/04 11:45:17;;;;;;;15.68;8.48;;;;;;;;;;4890022;29;20066;-67
2023/01/04 11:47:50;;;;;;;12.88;7.75;;;;;;;;;;4890401;29;20051;-67
2023/01/04 11:50:35;;;;;;;12.45;5.72;;;;;;;;;;4891323;29;20062;-67
2023/01/04 11:53:01;;;;;;;10.23;4.97;;;;;;;;;;4890052;29;20043;-67
2023/01/04 11:55:32;;;;;;;8.90;4.25;;;;;;;;;;4893239;29;20486;-67
2023/01/04 11:58:14;;;;;;;12.60;4.93;;;;;;;;;;4894493;29;20040;-66
2023/01/04 12:00:53;;;;;;;10.18;4.30;;;;;;;;;;4894093;29;20050;-66
2023/01/04 12:03:30;;;;;;;9.52;4.18;;;;;;;;;;4888707;29;20086;-68
2023/01/04 12:05:57;;;;;;;9.52;4.20;;;;;;;;;;4893245;29;20601;-67
2023/01/04 12:08:26;;;;;;;8.73;3.78;;;;;;;;;;4889505;29;20123;-68
2023/01/04 12:10:52;;;;;;;10.05;4.30;;;;;;;;;;4890124;29;20536;-67
2023/01/04 12:13:18;;;;;;;9.55;3.55;;;;;;;;;;4943892;28;20495;-67
2023/01/04 12:16:08;;;;;;;12.60;4.05;;;;;;;;;;4950127;28;20658;-68
2023/01/04 12:18:35;;;;;;;9.45;3.88;;;;;;;;;;4946651;28;20385;-68
2023/01/04 12:21:02;;;;;;;10.75;3.90;;;;;;;;;;4947556;28;20155;-68
2023/01/04 12:23:29;;;;;;;9.38;4.00;;;;;;;;;;4949657;28;20028;-68
2023/01/04 12:25:55;;;;;;;11.98;4.10;;;;;;;;;;4949465;28;20424;-68
2023/01/04 12:28:43;;;;;;;10.80;4.05;;;;;;;;;;4947770;28;20602;-66
2023/01/04 12:31:21;;;;;;;9.73;3.97;;;;;;;;;;4948051;28;20062;-66
2023/01/04 12:33:51;;;;;;;11.32;3.60;;;;;;;;;;4947273;28;20097;-67
2023/01/04 12:36:18;;;;;;;9.23;3.88;;;;;;;;;;4947006;28;20518;-68
2023/01/04 12:38:54;;;;;;;10.88;4.20;;;;;;;;;;4945588;28;20030;-67
2023/01/04 12:41:40;;;;;;;10.85;4.30;;;;;;;;;;4946446;28;22549;-66
2023/01/04 12:44:25;;;;;;;12.07;5.35;;;;;;;;;;4935247;28;20114;-67
2023/01/04 12:49:39;;;;;;;12.52;6.18;;;;;;;;;;4949010;28;20053;-66
2023/01/04 12:52:05;;;;;;;11.27;4.70;;;;;;;;;;4946562;28;20034;-69
2023/01/04 12:54:43;;;;;;;8.73;3.78;;;;;;;;;;4950351;28;20030;-66
2023/01/04 12:57:10;;;;;;;9.82;4.38;;;;;;;;;;4944473;28;20073;-67
2023/01/04 12:59:53;;;;;;;9.90;4.30;;;;;;;;;;4948312;28;20038;-67
2023/01/04 13:02:23;;;;;;;11.10;4.38;;;;;;;;;;4947306;28;20422;-66
2023/01/04 13:04:51;;;;;;;10.85;4.38;;;;;;;;;;4948963;28;20294;-67
2023/01/04 13:07:40;;;;;;;10.52;5.75;;;;;;;;;;4948486;28;20026;-66
2023/01/04 13:10:18;;;;;;;11.52;4.90;;;;;;;;;;4947518;28;20033;-67
2023/01/04 13:12:53;;;;;;;10.75;4.75;;;;;;;;;;4947798;28;20658;-67
2023/01/04 13:15:28;;;;;;;10.50;3.90;;;;;;;;;;4948944;28;20881;-66
2023/01/04 13:17:55;;;;;;;9.40;3.45;;;;;;;;;;4949502;28;20044;-69
2023/01/04 13:20:24;;;;;;;10.07;3.78;;;;;;;;;;4946142;28;20290;-67
2023/01/04 13:22:52;;;;;;;9.18;3.38;;;;;;;;;;4958027;28;20673;-67
2023/01/04 13:25:19;;;;;;;8.45;3.20;;;;;;;;;;4954137;28;20037;-67
2023/01/04 13:27:59;;;;;;;9.65;3.40;;;;;;;;;;4960431;28;20031;-68
2023/01/04 13:30:29;;;;;;;9.68;3.53;;;;;;;;;;4952790;28;20060;-68
2023/01/04 13:32:55;;;;;;;11.02;3.95;;;;;;;;;;4955824;28;20061;-67
2023/01/04 13:35:21;;;;;;;9.80;3.92;;;;;;;;;;4955249;28;20306;-67
2023/01/04 13:37:48;;;;;;;12.20;3.78;;;;;;;;;;4959176;28;20489;-66
2023/01/04 13:40:34;;;;;;;8.80;3.58;;;;;;;;;;4955032;28;20480;-67
2023/01/04 13:43:23;;;;;;;9.05;3.05;;;;;;;;;;4958355;28;20401;-67
2023/01/04 13:46:08;;;;;;;13.27;3.45;;;;;;;;;;4959337;28;20113;-67
2023/01/04 13:48:39;;;;;;;10.68;3.67;;;;;;;;;;4962075;28;20167;-67
2023/01/04 13:51:16;;;;;;;8.48;3.60;;;;;;;;;;4958602;28;20038;-68
2023/01/04 13:53:51;;;;;;;10.20;3.83;;;;;;;;;;4961210;28;20448;-68
2023/01/04 13:56:19;;;;;;;10.15;4.00;;;;;;;;;;4958232;28;20381;-67
2023/01/04 13:58:45;;;;;;;10.10;3.78;;;;;;;;;;4957552;28;20106;-68
2023/01/04 14:01:14;;;;;;;9.75;3.70;;;;;;;;;;4957230;28;20376;-67
2023/01/04 14:03:41;;;;;;;10.70;4.10;;;;;;;;;;4962679;28;20480;-67
2023/01/04 14:06:12;;;;;;;9.63;4.07;;;;;;;;;;4960347;28;20101;-67
2023/01/04 14:08:38;;;;;;;10.07;3.38;;;;;;;;;;4962764;28;20827;-66
2023/01/04 14:11:10;;;;;;;10.90;3.63;;;;;;;;;;4960483;28;20255;-69
2023/01/04 14:13:36;;;;;;;9.25;3.30;;;;;;;;;;4962409;28;20076;-67
2023/01/04 14:16:04;;;;;;;8.68;2.92;;;;;;;;;;4959847;28;20337;-67
2023/01/04 14:18:31;;;;;;;9.10;3.13;;;;;;;;;;4961657;28;21044;-67
2023/01/04 14:20:57;;;;;;;9.57;3.65;;;;;;;;;;4960527;28;20033;-67
2023/01/04 14:23:28;;;;;;;11.05;3.78;;;;;;;;;;4957833;28;20027;-67
2023/01/04 14:25:57;;;;;;;9.38;3.33;;;;;;;;;;4960506;28;20029;-68
2023/01/04 14:28:29;;;;;;;7.72;3.10;;;;;;;;;;4954428;28;20347;-68
2023/01/04 14:30:55;;;;;;;10.00;3.38;;;;;;;;;;4962416;28;20032;-68
2023/01/04 14:33:43;;;;;;;10.30;3.53;;;;;;;;;;4959232;28;20022;-69
2023/01/04 14:36:09;;;;;;;9.32;3.08;;;;;;;;;;4959849;28;20105;-68
2023/01/04 14:38:40;;;;;;;9.52;3.20;;;;;;;;;;4960222;28;20446;-68
2023/01/04 14:41:27;;;;;;;10.15;3.45;;;;;;;;;;4957328;28;20481;-67
2023/01/04 14:44:00;;;;;;;10.18;3.90;;;;;;;;;;4961162;28;20440;-67
2023/01/04 14:46:27;;;;;;;9.80;3.70;;;;;;;;;;4960033;28;20015;-67
2023/01/04 14:48:53;;;;;;;9.73;3.83;;;;;;;;;;4962359;28;20473;-67
2023/01/04 14:51:21;;;;;;;11.02;3.60;;;;;;;;;;4959142;28;20046;-67
2023/01/04 14:53:47;;;;;;;9.73;3.70;;;;;;;;;;4960584;28;20041;-67
2023/01/04 14:56:14;;;;;;;9.93;4.00;;;;;;;;;;4957411;28;20441;-68
2023/01/04 14:58:41;;;;;;;13.75;4.32;;;;;;;;;;4960169;28;20101;-67
2023/01/04 15:01:07;;;;;;;9.15;3.80;;;;;;;;;;4957729;28;20567;-67
2023/01/04 15:03:33;;;;;;;10.23;4.20;;;;;;;;;;4960239;28;20026;-67
2023/01/04 15:06:00;;;;;;;12.93;4.75;;;;;;;;;;4961198;28;20461;-67
2023/01/04 15:08:26;;;;;;;15.30;4.53;;;;;;;;;;4958964;28;20027;-67
2023/01/04 15:10:52;;;;;;;12.02;3.83;;;;;;;;;;4960943;28;20220;-68
2023/01/04 15:13:18;;;;;;;11.32;3.65;;;;;;;;;;4957794;28;20037;-67
2023/01/04 15:15:44;;;;;;;21.58;5.20;;;;;;;;;;4960310;28;20241;-67
2023/01/04 15:18:10;;;;;;;12.25;3.65;;;;;;;;;;4955550;28;20500;-66
2023/01/04 15:20:38;;;;;;;10.05;4.30;;;;;;;;;;4959704;28;20729;-66
2023/01/04 15:23:05;;;;;;;13.82;4.22;;;;;;;;;;4953967;28;20042;-68
2023/01/04 15:25:31;;;;;;;29.48;5.35;;;;;;;;;;4962200;28;20157;-68
2023/01/04 15:27:57;;;;;;;13.35;3.72;;;;;;;;;;4962611;28;20035;-68
2023/01/04 15:30:24;;;;;;;14.13;3.72;;;;;;;;;;4958838;28;20030;-67